Time;durP1;ratioP1;P1;durP2;ratioP2;P2;SDS_P1;SDS_P2;PMS_P1;PMS_P2;Temp;Humidity;BMP_temperature;BMP_pressure;BME280_temperature;BME280_humidity;BME280_pressure;Samples;Min_cycle;Max_cycle;Signal;HPM_P1;HPM_P2
2023/05/02 00:04:04;;;;;;;1999.90;999.90;;;11.70;99.90;;;;;;6631496;89;20390;-81
2023/05/02 00:14:05;;;;;;;1999.90;999.90;;;11.70;99.90;;;;;;6640999;89;20215;-79
2023/05/02 00:24:05;;;;;;;1999.90;999.90;;;11.80;99.90;;;;;;6633962;89;20884;-80
2023/05/02 00:34:06;;;;;;;1999.90;999.90;;;11.80;99.90;;;;;;6643131;89;20279;-80
2023/05/02 00:44:07;;;;;;;1999.90;999.90;;;11.80;99.90;;;;;;6644245;89;20189;-79
2023/05/02 00:54:08;;;;;;;1999.90;999.90;;;11.90;99.90;;;;;;6643693;89;20839;-78
2023/05/02 01:04:30;;;;;;;1999.90;999.90;;;11.90;99.90;;;;;;6642523;89;20220;-79
2023/05/02 01:14:34;;;;;;;1999.90;999.90;;;11.90;99.90;;;;;;6608174;90;20674;-78
2023/05/02 01:24:40;;;;;;;1999.90;999.90;;;11.90;99.90;;;;;;6608697;89;20219;-80
2023/05/02 01:34:43;;;;;;;1999.90;999.90;;;11.90;99.90;;;;;;6609254;89;20179;-81
2023/05/02 01:44:45;;;;;;;1999.90;999.90;;;11.90;99.90;;;;;;6609507;90;20214;-79
2023/05/02 01:54:46;;;;;;;1999.90;999.90;;;11.90;99.90;;;;;;6608367;89;20185;-79
2023/05/02 02:04:48;;;;;;;1999.90;999.90;;;11.70;99.90;;;;;;6620626;89;20180;-79
2023/05/02 02:15:05;;;;;;;1999.90;999.90;;;11.70;99.90;;;;;;6643066;89;20795;-79
2023/05/02 02:25:09;;;;;;;1999.90;999.90;;;11.70;99.90;;;;;;6610697;89;20177;-80
2023/05/02 02:35:12;;;;;;;1999.90;999.90;;;11.60;99.90;;;;;;6608690;90;20379;-80
2023/05/02 02:45:37;;;;;;;1999.90;999.90;;;11.50;99.90;;;;;;6608044;90;20190;-79
2023/05/02 02:55:45;;;;;;;1999.90;999.90;;;11.40;99.90;;;;;;6608082;90;20303;-79
2023/05/02 03:05:46;;;;;;;1999.90;999.90;;;11.40;99.90;;;;;;6623975;89;20194;-79
2023/05/02 03:15:50;;;;;;;1999.90;999.90;;;11.30;99.90;;;;;;6608150;89;20182;-78
2023/05/02 03:25:51;;;;;;;1999.90;999.90;;;11.30;99.90;;;;;;6607918;89;20267;-80
2023/05/02 03:35:52;;;;;;;1999.90;999.90;;;11.20;99.90;;;;;;6610857;90;20189;-79
2023/05/02 03:45:52;;;;;;;1999.90;999.90;;;11.20;99.90;;;;;;6604403;90;20222;-79
2023/05/02 03:55:53;;;;;;;1999.90;999.90;;;11.20;99.90;;;;;;6603077;90;20686;-78
2023/05/02 04:05:53;;;;;;;1999.90;999.90;;;11.10;99.90;;;;;;6614375;90;20253;-79
2023/05/02 04:15:54;;;;;;;1999.90;999.90;;;11.00;99.90;;;;;;6605295;90;20704;-78
2023/05/02 04:25:55;;;;;;;1999.90;999.90;;;11.00;99.90;;;;;;6608502;90;20210;-78
2023/05/02 04:35:56;;;;;;;1999.90;999.90;;;10.90;99.90;;;;;;6605566;90;20201;-78
2023/05/02 04:45:57;;;;;;;1999.90;999.90;;;11.00;99.90;;;;;;6604334;90;20197;-79
2023/05/02 04:55:58;;;;;;;1999.90;999.90;;;11.00;99.90;;;;;;6603565;90;20384;-78
2023/05/02 05:05:58;;;;;;;1999.90;999.90;;;11.00;99.90;;;;;;6604218;90;20744;-78
2023/05/02 05:15:59;;;;;;;1999.90;999.90;;;11.10;99.90;;;;;;6634692;89;20395;-79
2023/05/02 05:26:14;;;;;;;1999.90;999.90;;;11.10;99.90;;;;;;6621335;89;20207;-79
2023/05/02 05:36:14;;;;;;;1999.90;999.90;;;11.00;99.90;;;;;;6621335;89;20181;-78
2023/05/02 05:46:15;;;;;;;1999.90;999.90;;;11.00;99.90;;;;;;6622892;89;20223;-78
2023/05/02 05:56:16;;;;;;;1999.90;999.90;;;11.00;99.90;;;;;;6620493;89;20577;-78
2023/05/02 06:06:17;;;;;;;1999.90;999.90;;;10.90;99.90;;;;;;6620826;89;20227;-81
2023/05/02 06:16:18;;;;;;;1999.90;999.90;;;11.00;99.90;;;;;;6619372;89;20308;-80
2023/05/02 06:26:20;;;;;;;1999.90;999.90;;;11.10;99.90;;;;;;6621191;89;20332;-80
2023/05/02 06:36:20;;;;;;;1999.90;999.90;;;11.10;99.90;;;;;;6621642;89;20239;-80
2023/05/02 06:46:21;;;;;;;1999.90;999.90;;;11.30;99.90;;;;;;6621773;89;20213;-80
2023/05/02 06:56:24;;;;;;;1999.90;999.90;;;11.40;99.90;;;;;;6621921;89;20221;-80
2023/05/02 07:06:25;;;;;;;1999.90;999.90;;;11.50;99.90;;;;;;6627427;89;20304;-82
2023/05/02 07:16:27;;;;;;;1999.90;999.90;;;11.60;99.90;;;;;;6622856;89;20824;-81
2023/05/02 07:26:27;;;;;;;1999.90;999.90;;;11.70;99.90;;;;;;6629448;89;20193;-81
2023/05/02 07:36:28;;;;;;;1999.90;999.90;;;11.60;99.90;;;;;;6626256;89;20911;-81
2023/05/02 07:46:28;;;;;;;1999.90;999.90;;;11.20;99.90;;;;;;6623281;89;20380;-80
2023/05/02 07:56:29;;;;;;;1999.90;999.90;;;11.30;99.90;;;;;;6619710;89;20388;-80
2023/05/02 08:06:29;;;;;;;1999.90;999.90;;;11.40;99.90;;;;;;6624212;89;20181;-78
2023/05/02 08:16:30;;;;;;;1999.90;999.90;;;11.50;99.90;;;;;;6630535;89;20216;-79
2023/05/02 08:26:31;;;;;;;1999.90;999.90;;;11.60;99.90;;;;;;6635302;89;20286;-80
2023/05/02 08:36:31;;;;;;;1999.90;999.90;;;11.50;99.90;;;;;;6636091;89;20221;-78
2023/05/02 08:46:35;;;;;;;1999.90;999.90;;;11.50;99.90;;;;;;6626191;89;20313;-79
2023/05/02 08:56:36;;;;;;;1999.90;999.90;;;11.70;99.90;;;;;;6606903;90;20191;-80
2023/05/02 09:06:37;;;;;;;1999.90;999.90;;;11.70;99.90;;;;;;6604281;89;20240;-80
2023/05/02 09:16:39;;;;;;;1999.90;999.90;;;11.50;99.90;;;;;;6606873;89;20194;-80
2023/05/02 09:26:39;;;;;;;1999.90;999.90;;;11.50;99.90;;;;;;6606888;90;20264;-79
2023/05/02 09:36:43;;;;;;;1999.90;999.90;;;11.60;99.90;;;;;;6606748;89;20198;-80
2023/05/02 09:46:49;;;;;;;1999.90;999.90;;;12.00;99.90;;;;;;6608261;89;20173;-80
2023/05/02 09:56:56;;;;;;;1999.90;999.90;;;12.70;99.90;;;;;;6609526;90;20220;-81
2023/05/02 10:06:58;;;;;;;1999.90;999.90;;;13.00;99.90;;;;;;6606607;89;20206;-80
2023/05/02 10:17:00;;;;;;;1999.90;999.90;;;12.50;99.90;;;;;;6605489;89;20178;-79
2023/05/02 10:27:03;;;;;;;1999.90;999.90;;;12.60;99.90;;;;;;6627139;89;20185;-80
2023/05/02 10:37:03;;;;;;;1999.90;999.90;;;12.30;99.90;;;;;;6607934;90;20237;-81
2023/05/02 10:47:23;;;;;;;1999.90;999.90;;;12.50;99.90;;;;;;6609681;90;20219;-82
2023/05/02 10:57:24;;;;;;;1999.90;999.90;;;12.40;99.90;;;;;;6697390;88;20271;-83
2023/05/02 11:07:24;;;;;;;1999.90;999.90;;;12.50;99.90;;;;;;6695746;88;20762;-81
2023/05/02 11:17:25;;;;;;;1999.90;999.90;;;13.20;99.90;;;;;;6691633;89;21036;-80
2023/05/02 11:27:29;;;;;;;1999.90;999.90;;;13.50;99.90;;;;;;6692057;89;20324;-81
2023/05/02 11:37:30;;;;;;;1999.90;999.90;;;13.80;99.90;;;;;;6692679;89;20197;-80
2023/05/02 11:47:32;;;;;;;1999.90;999.90;;;13.70;99.90;;;;;;6692081;89;20232;-82
2023/05/02 11:57:33;;;;;;;1999.90;999.90;;;13.70;99.90;;;;;;6693836;89;20202;-82
2023/05/02 12:07:44;;;;;;;1999.90;999.90;;;14.20;99.90;;;;;;6694909;89;20226;-81
2023/05/02 12:17:48;;;;;;;1999.90;999.90;;;14.30;99.90;;;;;;6604505;90;20210;-82
2023/05/02 12:27:59;;;;;;;1999.90;999.90;;;14.70;99.90;;;;;;6610146;89;20281;-81
2023/05/02 12:38:14;;;;;;;1999.90;999.90;;;14.50;99.90;;;;;;6610638;89;20211;-82
2023/05/02 12:48:25;;;;;;;1999.90;999.90;;;14.30;99.90;;;;;;6606487;89;20186;-80
2023/05/02 12:58:27;;;;;;;1999.90;999.90;;;15.00;99.90;;;;;;6610637;90;20241;-80
2023/05/02 13:08:28;;;;;;;1999.90;999.90;;;15.60;99.90;;;;;;6624760;89;20203;-80
2023/05/02 13:18:28;;;;;;;1999.90;999.90;;;16.50;99.90;;;;;;6624549;89;20204;-80
2023/05/02 13:28:32;;;;;;;1999.90;999.90;;;17.50;99.90;;;;;;6624755;89;20559;-81
2023/05/02 13:38:33;;;;;;;1999.90;999.90;;;17.70;99.90;;;;;;6624640;89;20210;-81
2023/05/02 13:48:36;;;;;;;1999.90;999.90;;;18.40;99.10;;;;;;6619146;89;20258;-81
2023/05/02 13:58:37;;;;;;;1999.90;999.90;;;18.30;98.90;;;;;;6623215;89;20181;-80
2023/05/02 14:08:38;;;;;;;1999.90;999.90;;;16.80;99.80;;;;;;6626402;89;20219;-82
2023/05/02 14:18:38;;;;;;;1999.90;999.90;;;16.70;99.90;;;;;;6630594;89;20204;-82
2023/05/02 14:28:39;;;;;;;1999.90;999.90;;;17.00;99.20;;;;;;6606471;89;20322;-80
2023/05/02 14:38:40;;;;;;;1999.90;999.90;;;16.50;98.70;;;;;;6606237;89;20694;-79
2023/05/02 14:48:40;;;;;;;1999.90;999.90;;;17.20;97.60;;;;;;6610333;89;20329;-80
2023/05/02 14:58:41;;;;;;;1999.90;999.90;;;18.30;97.10;;;;;;6605517;89;20261;-80
2023/05/02 15:08:42;;;;;;;1999.90;999.90;;;19.20;94.10;;;;;;6606832;89;20321;-81
2023/05/02 15:18:44;;;;;;;1999.90;999.90;;;19.00;94.10;;;;;;6610878;89;20337;-81
2023/05/02 15:28:44;;;;;;;1999.90;999.90;;;18.30;93.70;;;;;;6634703;89;20223;-79
2023/05/02 15:38:45;;;;;;;1999.90;999.90;;;16.70;95.30;;;;;;6635151;89;20222;-80
2023/05/02 15:48:45;;;;;;;1999.90;999.90;;;16.70;94.70;;;;;;6633145;89;20190;-79
2023/05/02 15:58:46;;;;;;;1999.90;999.90;;;15.90;95.70;;;;;;6634303;89;20293;-80
2023/05/02 16:08:46;;;;;;;1999.90;999.90;;;16.60;95.20;;;;;;6620890;89;20195;-79
2023/05/02 16:18:47;;;;;;;1999.90;999.90;;;16.90;94.90;;;;;;6627180;89;20613;-79
2023/05/02 16:28:47;;;;;;;1999.90;999.90;;;16.90;94.30;;;;;;6631593;89;20258;-79
2023/05/02 16:38:48;;;;;;;1999.90;999.90;;;17.00;93.50;;;;;;6629078;89;20362;-76
2023/05/02 16:48:48;;;;;;;1999.90;999.90;;;16.90;93.50;;;;;;6624527;89;20202;-80
2023/05/02 16:58:49;;;;;;;1999.90;999.90;;;16.00;93.90;;;;;;6624056;89;20224;-79
2023/05/02 17:08:50;;;;;;;1999.90;999.90;;;15.80;94.60;;;;;;6626047;89;20182;-78
2023/05/02 17:18:52;;;;;;;1999.90;999.90;;;15.80;94.20;;;;;;6622670;89;20214;-79
2023/05/02 17:28:52;;;;;;;1999.90;999.90;;;16.30;92.80;;;;;;6630673;88;20198;-79
2023/05/02 17:38:53;;;;;;;1999.90;999.90;;;17.00;92.30;;;;;;6627641;89;20194;-79
2023/05/02 17:48:54;;;;;;;1999.90;999.90;;;16.20;92.60;;;;;;6629329;89;20740;-79
2023/05/02 17:58:55;;;;;;;1999.90;999.90;;;15.20;93.90;;;;;;6635027;89;20176;-81
2023/05/02 18:08:56;;;;;;;1999.90;999.90;;;14.50;94.20;;;;;;6640049;89;20226;-79
2023/05/02 18:18:57;;;;;;;1999.90;999.90;;;14.00;94.90;;;;;;6623472;89;20272;-79
2023/05/02 18:28:57;;;;;;;1999.90;999.90;;;13.70;95.70;;;;;;6630232;89;20223;-80
2023/05/02 18:38:59;;;;;;;1999.90;999.90;;;13.30;96.10;;;;;;6616201;89;20187;-80
2023/05/02 18:48:59;;;;;;;1999.90;999.90;;;13.00;96.30;;;;;;6626959;89;20693;-79
2023/05/02 18:59:00;;;;;;;1999.90;999.90;;;12.80;96.60;;;;;;6637122;89;20214;-80
2023/05/02 19:09:01;;;;;;;1999.90;999.90;;;12.50;97.10;;;;;;6608829;89;20228;-81
2023/05/02 19:19:01;;;;;;;1999.90;999.90;;;12.30;97.40;;;;;;6635299;89;20236;-80
2023/05/02 19:29:02;;;;;;;1999.90;999.90;;;12.10;97.90;;;;;;6634810;89;20601;-81
2023/05/02 19:39:11;;;;;;;1999.90;999.90;;;11.70;98.70;;;;;;6627345;89;20699;-81
2023/05/02 19:49:12;;;;;;;1999.90;999.90;;;11.40;99.40;;;;;;6626500;89;20253;-80
2023/05/02 19:59:22;;;;;;;1999.90;999.90;;;11.10;99.90;;;;;;6611443;90;20205;-80
2023/05/02 20:09:30;;;;;;;1999.90;999.90;;;10.90;99.90;;;;;;6625112;89;20293;-79
2023/05/02 20:19:31;;;;;;;1999.90;999.90;;;10.80;99.90;;;;;;6640781;89;20180;-80
2023/05/02 20:29:32;;;;;;;1999.90;999.90;;;10.70;99.90;;;;;;6643053;89;20216;-80
2023/05/02 20:39:38;;;;;;;1999.90;999.90;;;10.50;99.90;;;;;;6623201;89;20245;-80
2023/05/02 20:49:39;;;;;;;1999.90;999.90;;;10.30;99.90;;;;;;6625975;89;20186;-82
2023/05/02 20:59:46;;;;;;;1999.90;999.90;;;10.10;99.90;;;;;;6631385;89;20241;-80
2023/05/02 21:09:47;;;;;;;1999.90;999.90;;;9.90;99.90;;;;;;6613569;89;20215;-80
2023/05/02 21:19:51;;;;;;;1999.90;999.90;;;9.70;99.90;;;;;;6640000;89;20222;-79
2023/05/02 21:29:55;;;;;;;1999.90;999.90;;;9.50;99.90;;;;;;6632954;89;20285;-79
2023/05/02 21:39:56;;;;;;;1999.90;999.90;;;9.50;99.90;;;;;;6619376;89;20198;-79
2023/05/02 21:49:57;;;;;;;1999.90;999.90;;;9.30;99.90;;;;;;6725230;78;20235;-76
2023/05/02 21:59:57;;;;;;;1999.90;999.90;;;9.30;99.90;;;;;;6735276;88;20249;-75
2023/05/02 22:09:58;;;;;;;1999.90;999.90;;;9.10;99.90;;;;;;6733365;88;20202;-76
2023/05/02 22:19:58;;;;;;;1999.90;999.90;;;8.90;99.90;;;;;;6734132;88;20332;-76
2023/05/02 22:29:59;;;;;;;1999.90;999.90;;;8.70;99.90;;;;;;6738349;88;20208;-76
2023/05/02 22:40:00;;;;;;;1999.90;999.90;;;8.50;99.90;;;;;;6737082;88;20520;-76
2023/05/02 22:50:03;;;;;;;1999.90;999.90;;;8.30;99.90;;;;;;6742078;88;20207;-77
2023/05/02 23:00:08;;;;;;;1999.90;999.90;;;8.30;99.90;;;;;;6735328;88;20201;-77
2023/05/02 23:10:08;;;;;;;1999.90;999.90;;;8.10;99.90;;;;;;6729158;88;20751;-76
2023/05/02 23:20:09;;;;;;;1999.90;999.90;;;8.00;99.90;;;;;;6730723;88;20256;-76
2023/05/02 23:30:10;;;;;;;1999.90;999.90;;;7.80;99.90;;;;;;6732714;88;20224;-76
2023/05/02 23:40:11;;;;;;;1999.90;999.90;;;7.80;99.90;;;;;;6731783;88;20201;-76
2023/05/02 23:50:11;;;;;;;1999.90;999.90;;;7.50;99.90;;;;;;6732192;88;20204;-75
